sensor_id;sensor_type;location;lat;lon;timestamp;P1;P2;P0
36897;PMS5003;22827;53.108;-6.738;2024-02-04T00:01:16;12;7;
36897;PMS5003;22827;53.108;-6.738;2024-02-04T00:03:52;9;9;
36897;PMS5003;22827;53.108;-6.738;2024-02-04T00:06:20;7;6;
36897;PMS5003;22827;53.108;-6.738;2024-02-04T00:08:46;11;9;
36897;PMS5003;22827;53.108;-6.738;2024-02-04T00:11:13;9;8;
36897;PMS5003;22827;53.108;-6.738;2024-02-04T00:13:40;9;8;
36897;PMS5003;22827;53.108;-6.738;2024-02-04T00:16:07;8;7;
36897;PMS5003;22827;53.108;-6.738;2024-02-04T00:18:34;5;4;
36897;PMS5003;22827;53.108;-6.738;2024-02-04T00:21:01;6;6;
36897;PMS5003;22827;53.108;-6.738;2024-02-04T00:23:28;4;4;
36897;PMS5003;22827;53.108;-6.738;2024-02-04T00:25:55;7;4;
36897;PMS5003;22827;53.108;-6.738;2024-02-04T00:28:22;5;5;
36897;PMS5003;22827;53.108;-6.738;2024-02-04T00:30:49;4;4;
36897;PMS5003;22827;53.108;-6.738;2024-02-04T00:33:15;7;7;
36897;PMS5003;22827;53.108;-6.738;2024-02-04T00:35:42;4;3;
36897;PMS5003;22827;53.108;-6.738;2024-02-04T00:38:09;6;4;
36897;PMS5003;22827;53.108;-6.738;2024-02-04T00:40:37;4;4;
36897;PMS5003;22827;53.108;-6.738;2024-02-04T00:43:04;6;6;
36897;PMS5003;22827;53.108;-6.738;2024-02-04T00:45:31;5;4;
36897;PMS5003;22827;53.108;-6.738;2024-02-04T00:47:58;7;6;
36897;PMS5003;22827;53.108;-6.738;2024-02-04T00:50:25;7;6;
36897;PMS5003;22827;53.108;-6.738;2024-02-04T00:52:52;5;4;
36897;PMS5003;22827;53.108;-6.738;2024-02-04T00:55:19;5;4;
36897;PMS5003;22827;53.108;-6.738;2024-02-04T00:57:46;4;4;
36897;PMS5003;22827;53.108;-6.738;2024-02-04T01:00:13;7;7;
36897;PMS5003;22827;53.108;-6.738;2024-02-04T01:02:41;9;7;
36897;PMS5003;22827;53.108;-6.738;2024-02-04T01:05:08;7;5;
36897;PMS5003;22827;53.108;-6.738;2024-02-04T01:07:35;8;6;
36897;PMS5003;22827;53.108;-6.738;2024-02-04T01:10:02;12;8;
36897;PMS5003;22827;53.108;-6.738;2024-02-04T01:12:30;8;8;
36897;PMS5003;22827;53.108;-6.738;2024-02-04T01:14:57;8;7;
36897;PMS5003;22827;53.108;-6.738;2024-02-04T01:17:24;5;5;
36897;PMS5003;22827;53.108;-6.738;2024-02-04T01:19:51;8;7;
36897;PMS5003;22827;53.108;-6.738;2024-02-04T01:22:17;5;5;
36897;PMS5003;22827;53.108;-6.738;2024-02-04T01:24:45;7;7;
36897;PMS5003;22827;53.108;-6.738;2024-02-04T01:27:11;8;6;
36897;PMS5003;22827;53.108;-6.738;2024-02-04T01:29:38;6;5;
36897;PMS5003;22827;53.108;-6.738;2024-02-04T01:32:06;5;5;
36897;PMS5003;22827;53.108;-6.738;2024-02-04T01:34:33;7;7;
36897;PMS5003;22827;53.108;-6.738;2024-02-04T01:37:00;4;4;
36897;PMS5003;22827;53.108;-6.738;2024-02-04T01:39:27;4;4;
36897;PMS5003;22827;53.108;-6.738;2024-02-04T01:41:54;8;7;
36897;PMS5003;22827;53.108;-6.738;2024-02-04T01:44:20;8;6;
36897;PMS5003;22827;53.108;-6.738;2024-02-04T01:46:47;5;5;
36897;PMS5003;22827;53.108;-6.738;2024-02-04T01:49:15;5;4;
36897;PMS5003;22827;53.108;-6.738;2024-02-04T01:51:42;4;4;
36897;PMS5003;22827;53.108;-6.738;2024-02-04T01:54:10;3;3;
36897;PMS5003;22827;53.108;-6.738;2024-02-04T01:56:37;6;4;
36897;PMS5003;22827;53.108;-6.738;2024-02-04T01:59:04;5;4;
36897;PMS5003;22827;53.108;-6.738;2024-02-04T02:01:31;4;4;
36897;PMS5003;22827;53.108;-6.738;2024-02-04T02:04:00;3;3;
36897;PMS5003;22827;53.108;-6.738;2024-02-04T02:06:27;4;4;
36897;PMS5003;22827;53.108;-6.738;2024-02-04T02:08:54;3;2;
36897;PMS5003;22827;53.108;-6.738;2024-02-04T02:11:24;2;2;
36897;PMS5003;22827;53.108;-6.738;2024-02-04T02:14:00;3;3;
36897;PMS5003;22827;53.108;-6.738;2024-02-04T02:16:31;3;3;
36897;PMS5003;22827;53.108;-6.738;2024-02-04T02:19:00;5;4;
36897;PMS5003;22827;53.108;-6.738;2024-02-04T02:21:41;4;4;
36897;PMS5003;22827;53.108;-6.738;2024-02-04T02:24:24;4;4;
36897;PMS5003;22827;53.108;-6.738;2024-02-04T02:26:56;4;4;
36897;PMS5003;22827;53.108;-6.738;2024-02-04T02:29:23;4;3;
36897;PMS5003;22827;53.108;-6.738;2024-02-04T02:31:50;4;2;
36897;PMS5003;22827;53.108;-6.738;2024-02-04T02:34:18;5;3;
36897;PMS5003;22827;53.108;-6.738;2024-02-04T02:36:50;3;3;
36897;PMS5003;22827;53.108;-6.738;2024-02-04T02:39:24;2;2;
36897;PMS5003;22827;53.108;-6.738;2024-02-04T02:41:56;4;3;
36897;PMS5003;22827;53.108;-6.738;2024-02-04T02:44:27;3;2;
36897;PMS5003;22827;53.108;-6.738;2024-02-04T02:46:56;2;2;
36897;PMS5003;22827;53.108;-6.738;2024-02-04T02:49:24;2;2;
36897;PMS5003;22827;53.108;-6.738;2024-02-04T02:51:51;2;2;
36897;PMS5003;22827;53.108;-6.738;2024-02-04T02:54:18;3;3;
36897;PMS5003;22827;53.108;-6.738;2024-02-04T02:56:45;2;2;
36897;PMS5003;22827;53.108;-6.738;2024-02-04T02:59:12;1;1;
36897;PMS5003;22827;53.108;-6.738;2024-02-04T03:01:39;4;3;
36897;PMS5003;22827;53.108;-6.738;2024-02-04T03:04:06;2;2;
36897;PMS5003;22827;53.108;-6.738;2024-02-04T03:06:32;5;3;
36897;PMS5003;22827;53.108;-6.738;2024-02-04T03:08:59;2;1;
36897;PMS5003;22827;53.108;-6.738;2024-02-04T03:11:26;1;1;
36897;PMS5003;22827;53.108;-6.738;2024-02-04T03:13:53;2;2;
36897;PMS5003;22827;53.108;-6.738;2024-02-04T03:16:20;2;1;
36897;PMS5003;22827;53.108;-6.738;2024-02-04T03:18:47;1;1;
36897;PMS5003;22827;53.108;-6.738;2024-02-04T03:21:14;1;1;
36897;PMS5003;22827;53.108;-6.738;2024-02-04T03:23:42;2;2;
36897;PMS5003;22827;53.108;-6.738;2024-02-04T03:26:10;1;1;
36897;PMS5003;22827;53.108;-6.738;2024-02-04T03:28:37;2;2;
36897;PMS5003;22827;53.108;-6.738;2024-02-04T03:31:04;1;1;
36897;PMS5003;22827;53.108;-6.738;2024-02-04T03:33:31;1;1;
36897;PMS5003;22827;53.108;-6.738;2024-02-04T03:35:58;1;1;
36897;PMS5003;22827;53.108;-6.738;2024-02-04T03:38:25;1;1;
36897;PMS5003;22827;53.108;-6.738;2024-02-04T03:40:52;2;2;
36897;PMS5003;22827;53.108;-6.738;2024-02-04T03:43:18;1;1;
36897;PMS5003;22827;53.108;-6.738;2024-02-04T03:45:45;2;2;
36897;PMS5003;22827;53.108;-6.738;2024-02-04T03:48:12;2;2;
36897;PMS5003;22827;53.108;-6.738;2024-02-04T03:50:39;0;0;
36897;PMS5003;22827;53.108;-6.738;2024-02-04T03:53:06;0;0;
36897;PMS5003;22827;53.108;-6.738;2024-02-04T03:55:33;0;0;
36897;PMS5003;22827;53.108;-6.738;2024-02-04T03:58:00;0;0;
36897;PMS5003;22827;53.108;-6.738;2024-02-04T04:00:27;1;1;
36897;PMS5003;22827;53.108;-6.738;2024-02-04T04:02:54;0;0;
36897;PMS5003;22827;53.108;-6.738;2024-02-04T04:05:21;1;1;
36897;PMS5003;22827;53.108;-6.738;2024-02-04T04:07:47;0;0;
36897;PMS5003;22827;53.108;-6.738;2024-02-04T04:10:14;0;0;
36897;PMS5003;22827;53.108;-6.738;2024-02-04T04:12:41;1;0;
36897;PMS5003;22827;53.108;-6.738;2024-02-04T04:15:08;1;1;
36897;PMS5003;22827;53.108;-6.738;2024-02-04T04:17:35;1;0;
36897;PMS5003;22827;53.108;-6.738;2024-02-04T04:20:03;0;0;
36897;PMS5003;22827;53.108;-6.738;2024-02-04T04:22:32;0;0;
36897;PMS5003;22827;53.108;-6.738;2024-02-04T04:24:59;0;0;
36897;PMS5003;22827;53.108;-6.738;2024-02-04T04:27:26;0;0;
36897;PMS5003;22827;53.108;-6.738;2024-02-04T04:29:53;0;0;
36897;PMS5003;22827;53.108;-6.738;2024-02-04T04:32:20;1;0;
36897;PMS5003;22827;53.108;-6.738;2024-02-04T04:34:47;0;0;
36897;PMS5003;22827;53.108;-6.738;2024-02-04T04:37:14;0;0;
36897;PMS5003;22827;53.108;-6.738;2024-02-04T04:39:41;0;0;
36897;PMS5003;22827;53.108;-6.738;2024-02-04T04:42:08;0;0;
36897;PMS5003;22827;53.108;-6.738;2024-02-04T04:44:35;0;0;
36897;PMS5003;22827;53.108;-6.738;2024-02-04T04:47:02;0;0;
36897;PMS5003;22827;53.108;-6.738;2024-02-04T04:49:30;0;0;
36897;PMS5003;22827;53.108;-6.738;2024-02-04T04:51:57;0;0;
36897;PMS5003;22827;53.108;-6.738;2024-02-04T04:54:24;0;0;
36897;PMS5003;22827;53.108;-6.738;2024-02-04T04:56:50;0;0;
36897;PMS5003;22827;53.108;-6.738;2024-02-04T04:59:17;0;0;
36897;PMS5003;22827;53.108;-6.738;2024-02-04T05:01:45;1;1;
36897;PMS5003;22827;53.108;-6.738;2024-02-04T05:04:12;0;0;
36897;PMS5003;22827;53.108;-6.738;2024-02-04T05:06:40;0;0;
36897;PMS5003;22827;53.108;-6.738;2024-02-04T05:09:07;0;0;
36897;PMS5003;22827;53.108;-6.738;2024-02-04T05:11:34;0;0;
36897;PMS5003;22827;53.108;-6.738;2024-02-04T05:14:01;0;0;
36897;PMS5003;22827;53.108;-6.738;2024-02-04T05:16:28;1;1;
36897;PMS5003;22827;53.108;-6.738;2024-02-04T05:18:56;0;0;
36897;PMS5003;22827;53.108;-6.738;2024-02-04T05:21:23;0;0;
36897;PMS5003;22827;53.108;-6.738;2024-02-04T05:23:50;1;0;
36897;PMS5003;22827;53.108;-6.738;2024-02-04T05:26:17;0;0;
36897;PMS5003;22827;53.108;-6.738;2024-02-04T05:28:44;0;0;
36897;PMS5003;22827;53.108;-6.738;2024-02-04T05:31:11;0;0;
36897;PMS5003;22827;53.108;-6.738;2024-02-04T05:33:38;0;0;
36897;PMS5003;22827;53.108;-6.738;2024-02-04T05:36:05;0;0;
36897;PMS5003;22827;53.108;-6.738;2024-02-04T05:38:33;0;0;
36897;PMS5003;22827;53.108;-6.738;2024-02-04T05:41:00;0;0;
36897;PMS5003;22827;53.108;-6.738;2024-02-04T05:43:26;0;0;
36897;PMS5003;22827;53.108;-6.738;2024-02-04T05:45:53;0;0;
36897;PMS5003;22827;53.108;-6.738;2024-02-04T05:48:20;0;0;
36897;PMS5003;22827;53.108;-6.738;2024-02-04T05:50:47;0;0;
36897;PMS5003;22827;53.108;-6.738;2024-02-04T05:53:14;0;0;
36897;PMS5003;22827;53.108;-6.738;2024-02-04T05:55:41;1;0;
36897;PMS5003;22827;53.108;-6.738;2024-02-04T05:58:08;2;0;
36897;PMS5003;22827;53.108;-6.738;2024-02-04T06:00:35;0;0;
36897;PMS5003;22827;53.108;-6.738;2024-02-04T06:03:02;1;0;
36897;PMS5003;22827;53.108;-6.738;2024-02-04T06:05:29;3;1;
36897;PMS5003;22827;53.108;-6.738;2024-02-04T06:07:57;1;1;
36897;PMS5003;22827;53.108;-6.738;2024-02-04T06:10:24;1;1;
36897;PMS5003;22827;53.108;-6.738;2024-02-04T06:12:51;3;2;
36897;PMS5003;22827;53.108;-6.738;2024-02-04T06:15:18;2;0;
36897;PMS5003;22827;53.108;-6.738;2024-02-04T06:17:45;2;1;
36897;PMS5003;22827;53.108;-6.738;2024-02-04T06:20:12;3;2;
36897;PMS5003;22827;53.108;-6.738;2024-02-04T06:22:39;2;2;
36897;PMS5003;22827;53.108;-6.738;2024-02-04T06:25:06;1;1;
36897;PMS5003;22827;53.108;-6.738;2024-02-04T06:27:34;4;3;
36897;PMS5003;22827;53.108;-6.738;2024-02-04T06:30:01;4;1;
36897;PMS5003;22827;53.108;-6.738;2024-02-04T06:32:29;3;2;
36897;PMS5003;22827;53.108;-6.738;2024-02-04T06:34:56;3;2;
36897;PMS5003;22827;53.108;-6.738;2024-02-04T06:37:23;3;2;
36897;PMS5003;22827;53.108;-6.738;2024-02-04T06:39:50;4;2;
36897;PMS5003;22827;53.108;-6.738;2024-02-04T06:42:18;2;2;
36897;PMS5003;22827;53.108;-6.738;2024-02-04T06:44:45;1;1;
36897;PMS5003;22827;53.108;-6.738;2024-02-04T06:47:12;2;1;
36897;PMS5003;22827;53.108;-6.738;2024-02-04T06:49:39;3;1;
36897;PMS5003;22827;53.108;-6.738;2024-02-04T06:52:09;3;2;
36897;PMS5003;22827;53.108;-6.738;2024-02-04T06:54:36;1;1;
36897;PMS5003;22827;53.108;-6.738;2024-02-04T06:57:03;3;2;
36897;PMS5003;22827;53.108;-6.738;2024-02-04T06:59:31;3;2;
36897;PMS5003;22827;53.108;-6.738;2024-02-04T07:01:57;3;2;
36897;PMS5003;22827;53.108;-6.738;2024-02-04T07:04:24;4;1;
36897;PMS5003;22827;53.108;-6.738;2024-02-04T07:06:51;2;2;
36897;PMS5003;22827;53.108;-6.738;2024-02-04T07:09:18;3;2;
36897;PMS5003;22827;53.108;-6.738;2024-02-04T07:11:45;2;1;
36897;PMS5003;22827;53.108;-6.738;2024-02-04T07:14:12;2;2;
36897;PMS5003;22827;53.108;-6.738;2024-02-04T07:16:40;1;1;
36897;PMS5003;22827;53.108;-6.738;2024-02-04T07:19:06;1;1;
36897;PMS5003;22827;53.108;-6.738;2024-02-04T07:21:33;2;2;
36897;PMS5003;22827;53.108;-6.738;2024-02-04T07:24:00;1;0;
36897;PMS5003;22827;53.108;-6.738;2024-02-04T07:26:27;1;1;
36897;PMS5003;22827;53.108;-6.738;2024-02-04T07:28:54;1;0;
36897;PMS5003;22827;53.108;-6.738;2024-02-04T07:31:21;1;1;
36897;PMS5003;22827;53.108;-6.738;2024-02-04T07:33:48;2;1;
36897;PMS5003;22827;53.108;-6.738;2024-02-04T07:36:15;1;1;
36897;PMS5003;22827;53.108;-6.738;2024-02-04T07:38:41;2;0;
36897;PMS5003;22827;53.108;-6.738;2024-02-04T07:41:08;2;1;
36897;PMS5003;22827;53.108;-6.738;2024-02-04T07:43:35;0;0;
36897;PMS5003;22827;53.108;-6.738;2024-02-04T07:46:02;3;1;
36897;PMS5003;22827;53.108;-6.738;2024-02-04T07:48:29;2;1;
36897;PMS5003;22827;53.108;-6.738;2024-02-04T07:50:56;0;0;
36897;PMS5003;22827;53.108;-6.738;2024-02-04T07:53:23;1;1;
36897;PMS5003;22827;53.108;-6.738;2024-02-04T07:55:50;0;0;
36897;PMS5003;22827;53.108;-6.738;2024-02-04T07:58:17;0;0;
36897;PMS5003;22827;53.108;-6.738;2024-02-04T08:00:44;1;1;
36897;PMS5003;22827;53.108;-6.738;2024-02-04T08:03:11;1;0;
36897;PMS5003;22827;53.108;-6.738;2024-02-04T08:05:38;1;1;
36897;PMS5003;22827;53.108;-6.738;2024-02-04T08:08:05;2;1;
36897;PMS5003;22827;53.108;-6.738;2024-02-04T08:10:33;0;0;
36897;PMS5003;22827;53.108;-6.738;2024-02-04T08:13:00;0;0;
36897;PMS5003;22827;53.108;-6.738;2024-02-04T08:15:26;1;0;
36897;PMS5003;22827;53.108;-6.738;2024-02-04T08:17:53;0;0;
36897;PMS5003;22827;53.108;-6.738;2024-02-04T08:20:20;3;1;
36897;PMS5003;22827;53.108;-6.738;2024-02-04T08:22:48;0;0;
36897;PMS5003;22827;53.108;-6.738;2024-02-04T08:25:15;2;0;
36897;PMS5003;22827;53.108;-6.738;2024-02-04T08:27:42;0;0;
36897;PMS5003;22827;53.108;-6.738;2024-02-04T08:30:09;1;0;
36897;PMS5003;22827;53.108;-6.738;2024-02-04T08:32:36;0;0;
36897;PMS5003;22827;53.108;-6.738;2024-02-04T08:35:04;0;0;
36897;PMS5003;22827;53.108;-6.738;2024-02-04T08:37:32;0;0;
36897;PMS5003;22827;53.108;-6.738;2024-02-04T08:39:59;0;0;
36897;PMS5003;22827;53.108;-6.738;2024-02-04T08:42:26;0;0;
36897;PMS5003;22827;53.108;-6.738;2024-02-04T08:44:53;0;0;
36897;PMS5003;22827;53.108;-6.738;2024-02-04T08:47:20;0;0;
36897;PMS5003;22827;53.108;-6.738;2024-02-04T08:49:47;0;0;
36897;PMS5003;22827;53.108;-6.738;2024-02-04T08:52:14;0;0;
36897;PMS5003;22827;53.108;-6.738;2024-02-04T08:54:41;0;0;
36897;PMS5003;22827;53.108;-6.738;2024-02-04T08:57:07;0;0;
36897;PMS5003;22827;53.108;-6.738;2024-02-04T08:59:34;0;0;
36897;PMS5003;22827;53.108;-6.738;2024-02-04T09:02:01;1;0;
36897;PMS5003;22827;53.108;-6.738;2024-02-04T09:04:28;1;0;
36897;PMS5003;22827;53.108;-6.738;2024-02-04T09:06:55;1;1;
36897;PMS5003;22827;53.108;-6.738;2024-02-04T09:09:22;1;0;
36897;PMS5003;22827;53.108;-6.738;2024-02-04T09:11:49;0;0;
36897;PMS5003;22827;53.108;-6.738;2024-02-04T09:14:16;0;0;
36897;PMS5003;22827;53.108;-6.738;2024-02-04T09:16:43;0;0;
36897;PMS5003;22827;53.108;-6.738;2024-02-04T09:19:10;1;0;
36897;PMS5003;22827;53.108;-6.738;2024-02-04T09:21:37;0;0;
36897;PMS5003;22827;53.108;-6.738;2024-02-04T09:24:04;2;2;
36897;PMS5003;22827;53.108;-6.738;2024-02-04T09:26:32;1;1;
36897;PMS5003;22827;53.108;-6.738;2024-02-04T09:28:59;2;0;
36897;PMS5003;22827;53.108;-6.738;2024-02-04T09:31:25;1;0;
36897;PMS5003;22827;53.108;-6.738;2024-02-04T09:33:52;1;1;
36897;PMS5003;22827;53.108;-6.738;2024-02-04T09:36:19;1;0;
36897;PMS5003;22827;53.108;-6.738;2024-02-04T09:38:46;2;0;
36897;PMS5003;22827;53.108;-6.738;2024-02-04T09:41:13;2;2;
36897;PMS5003;22827;53.108;-6.738;2024-02-04T09:43:40;2;2;
36897;PMS5003;22827;53.108;-6.738;2024-02-04T09:46:07;5;2;
36897;PMS5003;22827;53.108;-6.738;2024-02-04T09:48:35;1;1;
36897;PMS5003;22827;53.108;-6.738;2024-02-04T09:51:05;2;1;
36897;PMS5003;22827;53.108;-6.738;2024-02-04T09:53:34;5;2;
36897;PMS5003;22827;53.108;-6.738;2024-02-04T09:56:02;4;2;
36897;PMS5003;22827;53.108;-6.738;2024-02-04T09:58:30;4;3;
36897;PMS5003;22827;53.108;-6.738;2024-02-04T10:00:57;3;2;
36897;PMS5003;22827;53.108;-6.738;2024-02-04T10:03:27;2;2;
36897;PMS5003;22827;53.108;-6.738;2024-02-04T10:05:53;3;3;
36897;PMS5003;22827;53.108;-6.738;2024-02-04T10:08:20;3;1;
36897;PMS5003;22827;53.108;-6.738;2024-02-04T10:10:47;4;2;
36897;PMS5003;22827;53.108;-6.738;2024-02-04T10:13:15;4;2;
36897;PMS5003;22827;53.108;-6.738;2024-02-04T10:15:42;3;3;
36897;PMS5003;22827;53.108;-6.738;2024-02-04T10:18:09;2;2;
36897;PMS5003;22827;53.108;-6.738;2024-02-04T10:20:36;7;4;
36897;PMS5003;22827;53.108;-6.738;2024-02-04T10:23:03;3;3;
36897;PMS5003;22827;53.108;-6.738;2024-02-04T10:25:30;4;3;
36897;PMS5003;22827;53.108;-6.738;2024-02-04T10:27:57;2;2;
36897;PMS5003;22827;53.108;-6.738;2024-02-04T10:30:24;6;3;
36897;PMS5003;22827;53.108;-6.738;2024-02-04T10:32:51;4;2;
36897;PMS5003;22827;53.108;-6.738;2024-02-04T10:35:20;4;2;
36897;PMS5003;22827;53.108;-6.738;2024-02-04T10:37:48;3;2;
36897;PMS5003;22827;53.108;-6.738;2024-02-04T10:40:15;4;3;
36897;PMS5003;22827;53.108;-6.738;2024-02-04T10:42:43;5;3;
36897;PMS5003;22827;53.108;-6.738;2024-02-04T10:45:10;4;2;
36897;PMS5003;22827;53.108;-6.738;2024-02-04T10:47:38;3;2;
36897;PMS5003;22827;53.108;-6.738;2024-02-04T10:50:07;1;1;
36897;PMS5003;22827;53.108;-6.738;2024-02-04T10:52:35;6;4;
36897;PMS5003;22827;53.108;-6.738;2024-02-04T10:55:04;4;2;
36897;PMS5003;22827;53.108;-6.738;2024-02-04T10:57:35;7;3;
36897;PMS5003;22827;53.108;-6.738;2024-02-04T11:00:02;5;3;
36897;PMS5003;22827;53.108;-6.738;2024-02-04T11:02:31;4;2;
36897;PMS5003;22827;53.108;-6.738;2024-02-04T11:05:00;2;1;
36897;PMS5003;22827;53.108;-6.738;2024-02-04T11:07:29;5;3;
36897;PMS5003;22827;53.108;-6.738;2024-02-04T11:09:58;4;3;
36897;PMS5003;22827;53.108;-6.738;2024-02-04T11:12:27;6;6;
36897;PMS5003;22827;53.108;-6.738;2024-02-04T11:14:56;5;3;
36897;PMS5003;22827;53.108;-6.738;2024-02-04T11:18:37;4;3;
36897;PMS5003;22827;53.108;-6.738;2024-02-04T11:21:28;4;3;
36897;PMS5003;22827;53.108;-6.738;2024-02-04T11:24:17;5;4;
36897;PMS5003;22827;53.108;-6.738;2024-02-04T11:26:55;5;4;
36897;PMS5003;22827;53.108;-6.738;2024-02-04T11:29:22;5;4;
36897;PMS5003;22827;53.108;-6.738;2024-02-04T11:31:51;5;4;
36897;PMS5003;22827;53.108;-6.738;2024-02-04T11:34:18;4;4;
36897;PMS5003;22827;53.108;-6.738;2024-02-04T11:36:45;4;4;
36897;PMS5003;22827;53.108;-6.738;2024-02-04T11:39:13;6;3;
36897;PMS5003;22827;53.108;-6.738;2024-02-04T11:41:45;7;3;
36897;PMS5003;22827;53.108;-6.738;2024-02-04T11:44:13;6;4;
36897;PMS5003;22827;53.108;-6.738;2024-02-04T11:46:47;4;4;
36897;PMS5003;22827;53.108;-6.738;2024-02-04T11:49:15;11;5;
36897;PMS5003;22827;53.108;-6.738;2024-02-04T11:51:44;7;3;
36897;PMS5003;22827;53.108;-6.738;2024-02-04T11:54:13;7;5;
36897;PMS5003;22827;53.108;-6.738;2024-02-04T11:56:40;9;9;
36897;PMS5003;22827;53.108;-6.738;2024-02-04T11:59:07;8;4;
36897;PMS5003;22827;53.108;-6.738;2024-02-04T12:01:35;8;6;
36897;PMS5003;22827;53.108;-6.738;2024-02-04T12:04:08;9;6;
36897;PMS5003;22827;53.108;-6.738;2024-02-04T12:06:36;10;7;
36897;PMS5003;22827;53.108;-6.738;2024-02-04T12:09:05;6;5;
36897;PMS5003;22827;53.108;-6.738;2024-02-04T12:11:32;8;6;
36897;PMS5003;22827;53.108;-6.738;2024-02-04T12:14:00;7;6;
36897;PMS5003;22827;53.108;-6.738;2024-02-04T12:16:27;12;8;
36897;PMS5003;22827;53.108;-6.738;2024-02-04T12:18:54;11;8;
36897;PMS5003;22827;53.108;-6.738;2024-02-04T12:21:21;10;6;
36897;PMS5003;22827;53.108;-6.738;2024-02-04T12:23:48;12;9;
36897;PMS5003;22827;53.108;-6.738;2024-02-04T12:26:16;11;9;
36897;PMS5003;22827;53.108;-6.738;2024-02-04T12:28:43;12;8;
36897;PMS5003;22827;53.108;-6.738;2024-02-04T12:31:16;12;8;
36897;PMS5003;22827;53.108;-6.738;2024-02-04T12:33:43;12;10;
36897;PMS5003;22827;53.108;-6.738;2024-02-04T12:36:18;17;10;
36897;PMS5003;22827;53.108;-6.738;2024-02-04T12:38:50;9;5;
36897;PMS5003;22827;53.108;-6.738;2024-02-04T12:41:18;11;8;
36897;PMS5003;22827;53.108;-6.738;2024-02-04T12:43:48;10;9;
36897;PMS5003;22827;53.108;-6.738;2024-02-04T12:46:16;11;7;
36897;PMS5003;22827;53.108;-6.738;2024-02-04T12:48:44;11;6;
36897;PMS5003;22827;53.108;-6.738;2024-02-04T12:51:12;10;8;
36897;PMS5003;22827;53.108;-6.738;2024-02-04T12:53:49;13;8;
36897;PMS5003;22827;53.108;-6.738;2024-02-04T12:56:15;13;6;
36897;PMS5003;22827;53.108;-6.738;2024-02-04T12:58:43;18;13;
36897;PMS5003;22827;53.108;-6.738;2024-02-04T13:01:10;13;8;
36897;PMS5003;22827;53.108;-6.738;2024-02-04T13:03:37;14;8;
36897;PMS5003;22827;53.108;-6.738;2024-02-04T13:06:04;8;6;
36897;PMS5003;22827;53.108;-6.738;2024-02-04T13:08:31;8;7;
36897;PMS5003;22827;53.108;-6.738;2024-02-04T13:10:58;11;9;
36897;PMS5003;22827;53.108;-6.738;2024-02-04T13:13:25;9;7;
36897;PMS5003;22827;53.108;-6.738;2024-02-04T13:15:53;9;6;
36897;PMS5003;22827;53.108;-6.738;2024-02-04T13:18:20;10;7;
36897;PMS5003;22827;53.108;-6.738;2024-02-04T13:20:47;13;9;
36897;PMS5003;22827;53.108;-6.738;2024-02-04T13:23:14;10;8;
36897;PMS5003;22827;53.108;-6.738;2024-02-04T13:25:41;16;13;
36897;PMS5003;22827;53.108;-6.738;2024-02-04T13:28:08;8;6;
36897;PMS5003;22827;53.108;-6.738;2024-02-04T13:30:35;11;8;
36897;PMS5003;22827;53.108;-6.738;2024-02-04T13:33:02;12;9;
36897;PMS5003;22827;53.108;-6.738;2024-02-04T13:35:29;10;6;
36897;PMS5003;22827;53.108;-6.738;2024-02-04T13:37:57;13;11;
36897;PMS5003;22827;53.108;-6.738;2024-02-04T13:40:24;20;12;
36897;PMS5003;22827;53.108;-6.738;2024-02-04T13:42:51;9;6;
36897;PMS5003;22827;53.108;-6.738;2024-02-04T13:45:18;5;4;
36897;PMS5003;22827;53.108;-6.738;2024-02-04T13:47:45;12;9;
36897;PMS5003;22827;53.108;-6.738;2024-02-04T13:50:14;10;6;
36897;PMS5003;22827;53.108;-6.738;2024-02-04T13:52:41;10;7;
36897;PMS5003;22827;53.108;-6.738;2024-02-04T13:55:08;10;8;
36897;PMS5003;22827;53.108;-6.738;2024-02-04T13:57:36;16;12;
36897;PMS5003;22827;53.108;-6.738;2024-02-04T14:00:03;13;9;
36897;PMS5003;22827;53.108;-6.738;2024-02-04T14:02:32;10;8;
36897;PMS5003;22827;53.108;-6.738;2024-02-04T14:04:59;13;7;
36897;PMS5003;22827;53.108;-6.738;2024-02-04T14:07:26;10;6;
36897;PMS5003;22827;53.108;-6.738;2024-02-04T14:09:54;13;8;
36897;PMS5003;22827;53.108;-6.738;2024-02-04T14:12:21;10;7;
36897;PMS5003;22827;53.108;-6.738;2024-02-04T14:14:48;22;10;
36897;PMS5003;22827;53.108;-6.738;2024-02-04T14:17:16;11;8;
36897;PMS5003;22827;53.108;-6.738;2024-02-04T14:19:43;12;7;
36897;PMS5003;22827;53.108;-6.738;2024-02-04T14:22:11;15;10;
36897;PMS5003;22827;53.108;-6.738;2024-02-04T14:24:38;23;14;
36897;PMS5003;22827;53.108;-6.738;2024-02-04T14:27:05;9;6;
36897;PMS5003;22827;53.108;-6.738;2024-02-04T14:29:32;12;9;
36897;PMS5003;22827;53.108;-6.738;2024-02-04T14:31:59;12;6;
36897;PMS5003;22827;53.108;-6.738;2024-02-04T14:34:27;13;12;
36897;PMS5003;22827;53.108;-6.738;2024-02-04T14:36:54;16;9;
36897;PMS5003;22827;53.108;-6.738;2024-02-04T14:39:21;11;7;
36897;PMS5003;22827;53.108;-6.738;2024-02-04T14:41:48;10;7;
36897;PMS5003;22827;53.108;-6.738;2024-02-04T14:44:15;12;7;
36897;PMS5003;22827;53.108;-6.738;2024-02-04T14:46:42;12;6;
36897;PMS5003;22827;53.108;-6.738;2024-02-04T14:49:09;23;16;
36897;PMS5003;22827;53.108;-6.738;2024-02-04T14:51:38;13;7;
36897;PMS5003;22827;53.108;-6.738;2024-02-04T14:54:05;18;11;
36897;PMS5003;22827;53.108;-6.738;2024-02-04T14:56:36;18;8;
36897;PMS5003;22827;53.108;-6.738;2024-02-04T14:59:03;11;7;
36897;PMS5003;22827;53.108;-6.738;2024-02-04T15:01:30;17;8;
36897;PMS5003;22827;53.108;-6.738;2024-02-04T15:03:57;19;11;
36897;PMS5003;22827;53.108;-6.738;2024-02-04T15:06:24;16;13;
36897;PMS5003;22827;53.108;-6.738;2024-02-04T15:08:51;17;11;
36897;PMS5003;22827;53.108;-6.738;2024-02-04T15:11:19;9;6;
36897;PMS5003;22827;53.108;-6.738;2024-02-04T15:13:46;11;7;
36897;PMS5003;22827;53.108;-6.738;2024-02-04T15:16:14;13;8;
36897;PMS5003;22827;53.108;-6.738;2024-02-04T15:18:42;13;11;
36897;PMS5003;22827;53.108;-6.738;2024-02-04T15:21:09;15;8;
36897;PMS5003;22827;53.108;-6.738;2024-02-04T15:23:37;10;8;
36897;PMS5003;22827;53.108;-6.738;2024-02-04T15:26:05;12;9;
36897;PMS5003;22827;53.108;-6.738;2024-02-04T15:28:36;16;12;
36897;PMS5003;22827;53.108;-6.738;2024-02-04T15:31:04;9;6;
36897;PMS5003;22827;53.108;-6.738;2024-02-04T15:33:33;14;9;
36897;PMS5003;22827;53.108;-6.738;2024-02-04T15:36:01;9;6;
36897;PMS5003;22827;53.108;-6.738;2024-02-04T15:38:28;10;6;
36897;PMS5003;22827;53.108;-6.738;2024-02-04T15:40:56;11;10;
36897;PMS5003;22827;53.108;-6.738;2024-02-04T15:43:23;10;7;
36897;PMS5003;22827;53.108;-6.738;2024-02-04T15:45:50;10;6;
36897;PMS5003;22827;53.108;-6.738;2024-02-04T15:48:19;8;5;
36897;PMS5003;22827;53.108;-6.738;2024-02-04T15:50:51;16;9;
36897;PMS5003;22827;53.108;-6.738;2024-02-04T15:53:18;7;5;
36897;PMS5003;22827;53.108;-6.738;2024-02-04T15:55:46;11;8;
36897;PMS5003;22827;53.108;-6.738;2024-02-04T15:58:14;13;8;
36897;PMS5003;22827;53.108;-6.738;2024-02-04T16:00:42;10;7;
36897;PMS5003;22827;53.108;-6.738;2024-02-04T16:03:09;8;5;
36897;PMS5003;22827;53.108;-6.738;2024-02-04T16:05:37;15;7;
36897;PMS5003;22827;53.108;-6.738;2024-02-04T16:08:05;18;11;
36897;PMS5003;22827;53.108;-6.738;2024-02-04T16:10:33;15;10;
36897;PMS5003;22827;53.108;-6.738;2024-02-04T16:13:01;9;7;
36897;PMS5003;22827;53.108;-6.738;2024-02-04T16:15:28;7;6;
36897;PMS5003;22827;53.108;-6.738;2024-02-04T16:17:57;13;8;
36897;PMS5003;22827;53.108;-6.738;2024-02-04T16:20:24;12;8;
36897;PMS5003;22827;53.108;-6.738;2024-02-04T16:22:52;11;9;
36897;PMS5003;22827;53.108;-6.738;2024-02-04T16:25:19;17;9;
36897;PMS5003;22827;53.108;-6.738;2024-02-04T16:27:46;12;9;
36897;PMS5003;22827;53.108;-6.738;2024-02-04T16:30:14;14;12;
36897;PMS5003;22827;53.108;-6.738;2024-02-04T16:32:41;17;11;